sensor_id;sensor_type;location;lat;lon;timestamp;P1;durP1;ratioP1;P2;durP2;ratioP2
19587;SDS011;9940;47.252;8.696;2023-02-10T00:00:40;13.30;;;4.22;;
19587;SDS011;9940;47.252;8.696;2023-02-10T00:03:06;12.80;;;4.20;;
19587;SDS011;9940;47.252;8.696;2023-02-10T00:05:36;6.97;;;3.45;;
19587;SDS011;9940;47.252;8.696;2023-02-10T00:08:04;9.48;;;3.97;;
19587;SDS011;9940;47.252;8.696;2023-02-10T00:10:32;9.63;;;3.65;;
19587;SDS011;9940;47.252;8.696;2023-02-10T00:12:57;11.93;;;3.78;;
19587;SDS011;9940;47.252;8.696;2023-02-10T00:15:26;9.73;;;3.95;;
19587;SDS011;9940;47.252;8.696;2023-02-10T00:17:51;9.60;;;4.20;;
19587;SDS011;9940;47.252;8.696;2023-02-10T00:20:17;11.88;;;4.10;;
19587;SDS011;9940;47.252;8.696;2023-02-10T00:22:45;9.30;;;3.85;;
19587;SDS011;9940;47.252;8.696;2023-02-10T00:25:13;11.95;;;4.47;;
19587;SDS011;9940;47.252;8.696;2023-02-10T00:27:43;9.82;;;3.85;;
19587;SDS011;9940;47.252;8.696;2023-02-10T00:30:11;8.98;;;4.05;;
19587;SDS011;9940;47.252;8.696;2023-02-10T00:32:39;12.07;;;4.07;;
19587;SDS011;9940;47.252;8.696;2023-02-10T00:35:07;8.30;;;3.42;;
19587;SDS011;9940;47.252;8.696;2023-02-10T00:37:33;11.50;;;3.83;;
19587;SDS011;9940;47.252;8.696;2023-02-10T00:39:59;10.98;;;3.88;;
19587;SDS011;9940;47.252;8.696;2023-02-10T00:42:25;9.70;;;3.53;;
19587;SDS011;9940;47.252;8.696;2023-02-10T00:44:51;8.18;;;3.55;;
19587;SDS011;9940;47.252;8.696;2023-02-10T00:47:16;9.20;;;3.35;;
19587;SDS011;9940;47.252;8.696;2023-02-10T00:49:44;8.55;;;3.83;;
19587;SDS011;9940;47.252;8.696;2023-02-10T00:52:10;10.40;;;4.10;;
19587;SDS011;9940;47.252;8.696;2023-02-10T00:54:38;8.10;;;3.47;;
19587;SDS011;9940;47.252;8.696;2023-02-10T00:57:06;8.02;;;3.22;;
19587;SDS011;9940;47.252;8.696;2023-02-10T00:59:32;8.38;;;4.00;;
19587;SDS011;9940;47.252;8.696;2023-02-10T01:01:57;9.07;;;2.97;;
19587;SDS011;9940;47.252;8.696;2023-02-10T01:04:23;9.65;;;3.70;;
19587;SDS011;9940;47.252;8.696;2023-02-10T01:06:49;10.85;;;3.58;;
19587;SDS011;9940;47.252;8.696;2023-02-10T01:09:14;10.10;;;3.88;;
19587;SDS011;9940;47.252;8.696;2023-02-10T01:11:40;8.07;;;3.60;;
19587;SDS011;9940;47.252;8.696;2023-02-10T01:14:08;9.23;;;3.85;;
19587;SDS011;9940;47.252;8.696;2023-02-10T01:16:36;8.55;;;3.55;;
19587;SDS011;9940;47.252;8.696;2023-02-10T01:19:02;7.95;;;3.42;;
19587;SDS011;9940;47.252;8.696;2023-02-10T01:21:28;8.40;;;3.45;;
19587;SDS011;9940;47.252;8.696;2023-02-10T01:23:57;8.15;;;3.83;;
19587;SDS011;9940;47.252;8.696;2023-02-10T01:26:25;10.93;;;3.80;;
19587;SDS011;9940;47.252;8.696;2023-02-10T01:28:50;11.57;;;4.03;;
19587;SDS011;9940;47.252;8.696;2023-02-10T01:31:20;7.82;;;3.15;;
19587;SDS011;9940;47.252;8.696;2023-02-10T01:33:46;5.75;;;3.10;;
19587;SDS011;9940;47.252;8.696;2023-02-10T01:36:16;7.07;;;3.30;;
19587;SDS011;9940;47.252;8.696;2023-02-10T01:38:43;8.80;;;3.03;;
19587;SDS011;9940;47.252;8.696;2023-02-10T01:41:12;8.20;;;3.22;;
19587;SDS011;9940;47.252;8.696;2023-02-10T01:46:46;5.15;;;2.80;;
19587;SDS011;9940;47.252;8.696;2023-02-10T01:49:16;9.75;;;2.90;;
19587;SDS011;9940;47.252;8.696;2023-02-10T01:51:58;7.57;;;2.72;;
19587;SDS011;9940;47.252;8.696;2023-02-10T01:54:46;7.75;;;2.85;;
19587;SDS011;9940;47.252;8.696;2023-02-10T01:57:15;6.57;;;2.67;;
19587;SDS011;9940;47.252;8.696;2023-02-10T01:59:41;6.72;;;2.67;;
19587;SDS011;9940;47.252;8.696;2023-02-10T02:02:08;8.82;;;3.10;;
19587;SDS011;9940;47.252;8.696;2023-02-10T02:04:44;6.40;;;2.50;;
19587;SDS011;9940;47.252;8.696;2023-02-10T02:07:11;8.15;;;2.80;;
19587;SDS011;9940;47.252;8.696;2023-02-10T02:09:37;7.75;;;2.60;;
19587;SDS011;9940;47.252;8.696;2023-02-10T02:14:45;5.53;;;2.28;;
19587;SDS011;9940;47.252;8.696;2023-02-10T02:17:33;4.97;;;2.08;;
19587;SDS011;9940;47.252;8.696;2023-02-10T02:26:19;3.88;;;1.80;;
19587;SDS011;9940;47.252;8.696;2023-02-10T02:34:06;8.30;;;2.50;;
19587;SDS011;9940;47.252;8.696;2023-02-10T02:39:26;8.20;;;3.42;;
19587;SDS011;9940;47.252;8.696;2023-02-10T02:44:40;10.05;;;3.13;;
19587;SDS011;9940;47.252;8.696;2023-02-10T02:55:14;10.07;;;3.88;;
19587;SDS011;9940;47.252;8.696;2023-02-10T03:00:44;10.95;;;3.38;;
19587;SDS011;9940;47.252;8.696;2023-02-10T03:03:14;7.68;;;3.35;;
19587;SDS011;9940;47.252;8.696;2023-02-10T03:05:40;9.30;;;3.72;;
19587;SDS011;9940;47.252;8.696;2023-02-10T03:08:06;8.25;;;3.13;;
19587;SDS011;9940;47.252;8.696;2023-02-10T03:10:34;10.07;;;3.35;;
19587;SDS011;9940;47.252;8.696;2023-02-10T03:13:02;11.50;;;3.95;;
19587;SDS011;9940;47.252;8.696;2023-02-10T03:15:30;10.90;;;3.45;;
19587;SDS011;9940;47.252;8.696;2023-02-10T03:17:56;9.40;;;3.53;;
19587;SDS011;9940;47.252;8.696;2023-02-10T03:20:22;9.48;;;3.53;;
19587;SDS011;9940;47.252;8.696;2023-02-10T03:22:50;8.40;;;3.05;;
19587;SDS011;9940;47.252;8.696;2023-02-10T03:25:15;11.45;;;3.70;;
19587;SDS011;9940;47.252;8.696;2023-02-10T03:27:41;9.30;;;3.25;;
19587;SDS011;9940;47.252;8.696;2023-02-10T03:30:07;6.97;;;3.90;;
19587;SDS011;9940;47.252;8.696;2023-02-10T03:32:33;6.28;;;2.70;;
19587;SDS011;9940;47.252;8.696;2023-02-10T03:35:01;8.05;;;3.10;;
19587;SDS011;9940;47.252;8.696;2023-02-10T03:37:27;9.23;;;3.40;;
19587;SDS011;9940;47.252;8.696;2023-02-10T03:39:52;8.75;;;3.15;;
19587;SDS011;9940;47.252;8.696;2023-02-10T03:42:20;6.75;;;2.75;;
19587;SDS011;9940;47.252;8.696;2023-02-10T03:44:46;9.65;;;3.28;;
19587;SDS011;9940;47.252;8.696;2023-02-10T03:47:13;7.65;;;3.13;;
19587;SDS011;9940;47.252;8.696;2023-02-10T03:49:39;11.55;;;2.92;;
19587;SDS011;9940;47.252;8.696;2023-02-10T03:52:05;7.35;;;3.10;;
19587;SDS011;9940;47.252;8.696;2023-02-10T03:54:30;8.07;;;3.25;;
19587;SDS011;9940;47.252;8.696;2023-02-10T03:56:56;7.75;;;2.53;;
19587;SDS011;9940;47.252;8.696;2023-02-10T03:59:24;6.97;;;2.47;;
19587;SDS011;9940;47.252;8.696;2023-02-10T04:01:50;7.80;;;2.95;;
19587;SDS011;9940;47.252;8.696;2023-02-10T04:04:16;9.38;;;3.30;;
19587;SDS011;9940;47.252;8.696;2023-02-10T04:06:43;6.18;;;2.63;;
19587;SDS011;9940;47.252;8.696;2023-02-10T04:09:09;5.85;;;2.85;;
19587;SDS011;9940;47.252;8.696;2023-02-10T04:11:37;7.13;;;2.80;;
19587;SDS011;9940;47.252;8.696;2023-02-10T04:14:02;6.32;;;3.05;;
19587;SDS011;9940;47.252;8.696;2023-02-10T04:16:30;8.38;;;3.08;;
19587;SDS011;9940;47.252;8.696;2023-02-10T04:18:57;6.85;;;2.90;;
19587;SDS011;9940;47.252;8.696;2023-02-10T04:21:22;7.55;;;3.40;;
19587;SDS011;9940;47.252;8.696;2023-02-10T04:23:49;8.10;;;3.58;;
19587;SDS011;9940;47.252;8.696;2023-02-10T04:26:16;8.75;;;3.60;;
19587;SDS011;9940;47.252;8.696;2023-02-10T04:28:41;9.00;;;3.05;;
19587;SDS011;9940;47.252;8.696;2023-02-10T04:31:07;8.23;;;3.13;;
19587;SDS011;9940;47.252;8.696;2023-02-10T04:33:34;6.45;;;3.05;;
19587;SDS011;9940;47.252;8.696;2023-02-10T04:36:02;5.18;;;2.67;;
19587;SDS011;9940;47.252;8.696;2023-02-10T04:38:31;6.95;;;3.13;;
19587;SDS011;9940;47.252;8.696;2023-02-10T04:40:59;6.88;;;2.85;;
19587;SDS011;9940;47.252;8.696;2023-02-10T04:43:27;8.02;;;3.08;;
19587;SDS011;9940;47.252;8.696;2023-02-10T04:45:52;8.07;;;3.00;;
19587;SDS011;9940;47.252;8.696;2023-02-10T04:48:18;12.90;;;4.15;;
19587;SDS011;9940;47.252;8.696;2023-02-10T04:50:46;14.85;;;4.70;;
19587;SDS011;9940;47.252;8.696;2023-02-10T04:53:14;12.30;;;4.28;;
19587;SDS011;9940;47.252;8.696;2023-02-10T04:55:40;8.95;;;4.60;;
19587;SDS011;9940;47.252;8.696;2023-02-10T04:58:10;9.48;;;3.92;;
19587;SDS011;9940;47.252;8.696;2023-02-10T05:00:36;7.38;;;3.63;;
19587;SDS011;9940;47.252;8.696;2023-02-10T05:03:06;9.05;;;3.47;;
19587;SDS011;9940;47.252;8.696;2023-02-10T05:05:36;30.70;;;13.85;;
19587;SDS011;9940;47.252;8.696;2023-02-10T05:08:04;24.52;;;11.77;;
19587;SDS011;9940;47.252;8.696;2023-02-10T05:10:30;15.80;;;5.50;;
19587;SDS011;9940;47.252;8.696;2023-02-10T05:12:56;9.43;;;3.97;;
19587;SDS011;9940;47.252;8.696;2023-02-10T05:15:26;7.35;;;3.05;;
19587;SDS011;9940;47.252;8.696;2023-02-10T05:17:51;7.32;;;3.00;;
19587;SDS011;9940;47.252;8.696;2023-02-10T05:20:17;5.03;;;2.60;;
19587;SDS011;9940;47.252;8.696;2023-02-10T05:22:45;7.00;;;2.78;;
19587;SDS011;9940;47.252;8.696;2023-02-10T05:25:10;6.97;;;2.80;;
19587;SDS011;9940;47.252;8.696;2023-02-10T05:27:36;6.13;;;2.40;;
19587;SDS011;9940;47.252;8.696;2023-02-10T05:30:02;9.07;;;2.75;;
19587;SDS011;9940;47.252;8.696;2023-02-10T05:32:31;10.00;;;2.95;;
19587;SDS011;9940;47.252;8.696;2023-02-10T05:35:00;9.45;;;2.65;;
19587;SDS011;9940;47.252;8.696;2023-02-10T05:37:25;6.78;;;3.22;;
19587;SDS011;9940;47.252;8.696;2023-02-10T05:39:53;8.50;;;3.05;;
19587;SDS011;9940;47.252;8.696;2023-02-10T05:42:21;8.68;;;2.70;;
19587;SDS011;9940;47.252;8.696;2023-02-10T05:44:49;9.85;;;3.28;;
19587;SDS011;9940;47.252;8.696;2023-02-10T05:47:20;8.85;;;3.28;;
19587;SDS011;9940;47.252;8.696;2023-02-10T05:49:46;10.15;;;3.17;;
19587;SDS011;9940;47.252;8.696;2023-02-10T05:52:16;6.90;;;3.20;;
19587;SDS011;9940;47.252;8.696;2023-02-10T05:54:44;8.00;;;3.22;;
19587;SDS011;9940;47.252;8.696;2023-02-10T05:57:10;6.47;;;3.08;;
19587;SDS011;9940;47.252;8.696;2023-02-10T05:59:35;8.65;;;2.95;;
19587;SDS011;9940;47.252;8.696;2023-02-10T06:02:03;5.72;;;2.78;;
19587;SDS011;9940;47.252;8.696;2023-02-10T06:04:29;8.65;;;2.83;;
19587;SDS011;9940;47.252;8.696;2023-02-10T06:06:57;7.57;;;3.40;;
19587;SDS011;9940;47.252;8.696;2023-02-10T06:09:22;7.45;;;2.88;;
19587;SDS011;9940;47.252;8.696;2023-02-10T06:11:53;9.18;;;3.17;;
19587;SDS011;9940;47.252;8.696;2023-02-10T06:14:19;9.35;;;3.53;;
19587;SDS011;9940;47.252;8.696;2023-02-10T06:16:47;7.78;;;3.30;;
19587;SDS011;9940;47.252;8.696;2023-02-10T06:19:13;9.95;;;3.58;;
19587;SDS011;9940;47.252;8.696;2023-02-10T06:21:38;8.57;;;3.47;;
19587;SDS011;9940;47.252;8.696;2023-02-10T06:24:06;9.63;;;3.28;;
19587;SDS011;9940;47.252;8.696;2023-02-10T06:26:32;8.68;;;3.90;;
19587;SDS011;9940;47.252;8.696;2023-02-10T06:29:00;9.35;;;3.83;;
19587;SDS011;9940;47.252;8.696;2023-02-10T06:31:29;7.97;;;3.93;;
19587;SDS011;9940;47.252;8.696;2023-02-10T06:33:55;9.85;;;4.00;;
19587;SDS011;9940;47.252;8.696;2023-02-10T06:36:20;7.47;;;3.60;;
19587;SDS011;9940;47.252;8.696;2023-02-10T06:38:46;10.40;;;3.30;;
19587;SDS011;9940;47.252;8.696;2023-02-10T06:41:13;15.00;;;3.47;;
19587;SDS011;9940;47.252;8.696;2023-02-10T06:43:38;7.40;;;2.78;;
19587;SDS011;9940;47.252;8.696;2023-02-10T06:46:04;7.28;;;3.20;;
19587;SDS011;9940;47.252;8.696;2023-02-10T06:48:33;11.25;;;3.58;;
19587;SDS011;9940;47.252;8.696;2023-02-10T06:51:01;10.68;;;3.20;;
19587;SDS011;9940;47.252;8.696;2023-02-10T06:53:26;5.90;;;2.95;;
19587;SDS011;9940;47.252;8.696;2023-02-10T06:55:55;6.10;;;2.80;;
19587;SDS011;9940;47.252;8.696;2023-02-10T06:58:21;6.28;;;2.90;;
19587;SDS011;9940;47.252;8.696;2023-02-10T07:00:49;11.45;;;3.28;;
19587;SDS011;9940;47.252;8.696;2023-02-10T07:03:15;7.93;;;3.13;;
19587;SDS011;9940;47.252;8.696;2023-02-10T07:05:40;10.82;;;3.17;;
19587;SDS011;9940;47.252;8.696;2023-02-10T07:08:07;9.23;;;3.22;;
19587;SDS011;9940;47.252;8.696;2023-02-10T07:10:33;7.68;;;3.00;;
19587;SDS011;9940;47.252;8.696;2023-02-10T07:13:01;7.68;;;3.20;;
19587;SDS011;9940;47.252;8.696;2023-02-10T07:15:27;8.93;;;3.35;;
19587;SDS011;9940;47.252;8.696;2023-02-10T07:17:55;6.40;;;2.70;;
19587;SDS011;9940;47.252;8.696;2023-02-10T07:20:23;7.10;;;3.20;;
19587;SDS011;9940;47.252;8.696;2023-02-10T07:22:49;8.32;;;2.83;;
19587;SDS011;9940;47.252;8.696;2023-02-10T07:25:16;6.53;;;2.97;;
19587;SDS011;9940;47.252;8.696;2023-02-10T07:27:46;7.63;;;2.38;;
19587;SDS011;9940;47.252;8.696;2023-02-10T07:30:14;7.88;;;3.05;;
19587;SDS011;9940;47.252;8.696;2023-02-10T07:32:40;5.63;;;2.40;;
19587;SDS011;9940;47.252;8.696;2023-02-10T07:35:07;7.05;;;3.10;;
19587;SDS011;9940;47.252;8.696;2023-02-10T07:37:36;6.90;;;2.95;;
19587;SDS011;9940;47.252;8.696;2023-02-10T07:40:03;7.57;;;3.13;;
19587;SDS011;9940;47.252;8.696;2023-02-10T07:42:31;5.78;;;2.53;;
19587;SDS011;9940;47.252;8.696;2023-02-10T07:44:59;9.80;;;3.38;;
19587;SDS011;9940;47.252;8.696;2023-02-10T07:47:26;7.57;;;2.92;;
19587;SDS011;9940;47.252;8.696;2023-02-10T07:49:51;5.63;;;2.90;;
19587;SDS011;9940;47.252;8.696;2023-02-10T07:52:19;6.35;;;2.92;;
19587;SDS011;9940;47.252;8.696;2023-02-10T07:54:48;7.30;;;2.58;;
19587;SDS011;9940;47.252;8.696;2023-02-10T07:57:16;6.07;;;2.88;;
19587;SDS011;9940;47.252;8.696;2023-02-10T07:59:42;8.40;;;3.05;;
19587;SDS011;9940;47.252;8.696;2023-02-10T08:02:10;9.15;;;2.65;;
19587;SDS011;9940;47.252;8.696;2023-02-10T08:04:38;7.95;;;2.25;;
19587;SDS011;9940;47.252;8.696;2023-02-10T08:07:06;5.68;;;2.13;;
19587;SDS011;9940;47.252;8.696;2023-02-10T08:09:32;6.53;;;2.80;;
19587;SDS011;9940;47.252;8.696;2023-02-10T08:12:00;6.43;;;2.67;;
19587;SDS011;9940;47.252;8.696;2023-02-10T08:14:26;9.80;;;3.03;;
19587;SDS011;9940;47.252;8.696;2023-02-10T08:16:54;5.88;;;2.88;;
19587;SDS011;9940;47.252;8.696;2023-02-10T08:19:20;9.88;;;3.55;;
19587;SDS011;9940;47.252;8.696;2023-02-10T08:21:46;8.10;;;3.38;;
19587;SDS011;9940;47.252;8.696;2023-02-10T08:24:14;8.07;;;3.45;;
19587;SDS011;9940;47.252;8.696;2023-02-10T08:26:39;7.60;;;3.00;;
19587;SDS011;9940;47.252;8.696;2023-02-10T08:29:08;8.13;;;3.45;;
19587;SDS011;9940;47.252;8.696;2023-02-10T08:31:37;7.57;;;3.08;;
19587;SDS011;9940;47.252;8.696;2023-02-10T08:34:10;5.65;;;2.72;;
19587;SDS011;9940;47.252;8.696;2023-02-10T08:36:39;9.45;;;3.30;;
19587;SDS011;9940;47.252;8.696;2023-02-10T08:39:05;7.05;;;3.10;;
19587;SDS011;9940;47.252;8.696;2023-02-10T08:41:31;8.95;;;2.97;;
19587;SDS011;9940;47.252;8.696;2023-02-10T08:43:57;7.43;;;2.88;;
19587;SDS011;9940;47.252;8.696;2023-02-10T08:46:23;5.97;;;2.90;;
19587;SDS011;9940;47.252;8.696;2023-02-10T08:48:48;5.55;;;2.67;;
19587;SDS011;9940;47.252;8.696;2023-02-10T08:51:14;5.38;;;2.53;;
19587;SDS011;9940;47.252;8.696;2023-02-10T08:53:40;6.40;;;2.53;;
19587;SDS011;9940;47.252;8.696;2023-02-10T08:56:09;6.80;;;2.75;;
19587;SDS011;9940;47.252;8.696;2023-02-10T08:58:40;6.53;;;2.88;;
19587;SDS011;9940;47.252;8.696;2023-02-10T09:01:24;7.63;;;3.35;;
19587;SDS011;9940;47.252;8.696;2023-02-10T09:03:51;5.88;;;2.65;;
19587;SDS011;9940;47.252;8.696;2023-02-10T09:06:24;7.55;;;2.78;;
19587;SDS011;9940;47.252;8.696;2023-02-10T09:08:53;4.97;;;2.72;;
19587;SDS011;9940;47.252;8.696;2023-02-10T09:11:20;6.68;;;2.30;;
19587;SDS011;9940;47.252;8.696;2023-02-10T09:13:48;5.88;;;2.55;;
19587;SDS011;9940;47.252;8.696;2023-02-10T09:16:14;5.15;;;2.50;;
19587;SDS011;9940;47.252;8.696;2023-02-10T09:18:40;4.07;;;2.22;;
19587;SDS011;9940;47.252;8.696;2023-02-10T09:21:08;5.55;;;2.20;;
19587;SDS011;9940;47.252;8.696;2023-02-10T09:23:35;5.50;;;2.20;;
19587;SDS011;9940;47.252;8.696;2023-02-10T09:26:01;5.32;;;1.95;;
19587;SDS011;9940;47.252;8.696;2023-02-10T09:28:27;5.45;;;2.08;;
19587;SDS011;9940;47.252;8.696;2023-02-10T09:30:55;3.50;;;1.92;;
19587;SDS011;9940;47.252;8.696;2023-02-10T09:33:23;6.85;;;2.42;;
19587;SDS011;9940;47.252;8.696;2023-02-10T09:35:48;5.95;;;2.33;;
19587;SDS011;9940;47.252;8.696;2023-02-10T09:38:14;5.40;;;2.08;;
19587;SDS011;9940;47.252;8.696;2023-02-10T09:46:32;4.75;;;2.20;;
19587;SDS011;9940;47.252;8.696;2023-02-10T09:49:15;3.45;;;2.05;;
19587;SDS011;9940;47.252;8.696;2023-02-10T09:55:13;4.20;;;2.13;;
19587;SDS011;9940;47.252;8.696;2023-02-10T09:58:42;4.30;;;2.13;;
19587;SDS011;9940;47.252;8.696;2023-02-10T10:00:40;6.75;;;2.35;;
19587;SDS011;9940;47.252;8.696;2023-02-10T10:03:10;5.25;;;2.50;;
19587;SDS011;9940;47.252;8.696;2023-02-10T10:11:27;5.20;;;2.58;;
19587;SDS011;9940;47.252;8.696;2023-02-10T10:14:02;6.95;;;2.70;;
19587;SDS011;9940;47.252;8.696;2023-02-10T10:24:30;4.85;;;2.47;;
19587;SDS011;9940;47.252;8.696;2023-02-10T10:30:14;6.32;;;2.42;;
19587;SDS011;9940;47.252;8.696;2023-02-10T10:35:15;4.97;;;2.47;;
19587;SDS011;9940;47.252;8.696;2023-02-10T10:37:43;4.90;;;2.67;;
19587;SDS011;9940;47.252;8.696;2023-02-10T10:40:13;5.20;;;2.85;;
19587;SDS011;9940;47.252;8.696;2023-02-10T10:42:47;6.80;;;3.08;;
19587;SDS011;9940;47.252;8.696;2023-02-10T10:47:57;7.78;;;3.28;;
19587;SDS011;9940;47.252;8.696;2023-02-10T10:50:36;6.65;;;3.83;;
19587;SDS011;9940;47.252;8.696;2023-02-10T10:53:05;5.18;;;3.47;;
19587;SDS011;9940;47.252;8.696;2023-02-10T10:55:43;4.80;;;3.75;;
19587;SDS011;9940;47.252;8.696;2023-02-10T11:00:50;7.95;;;5.97;;
19587;SDS011;9940;47.252;8.696;2023-02-10T11:03:19;6.63;;;6.03;;
19587;SDS011;9940;47.252;8.696;2023-02-10T11:05:59;8.75;;;7.93;;
19587;SDS011;9940;47.252;8.696;2023-02-10T11:08:27;11.88;;;11.07;;
19587;SDS011;9940;47.252;8.696;2023-02-10T11:10:54;13.63;;;12.73;;
19587;SDS011;9940;47.252;8.696;2023-02-10T11:13:22;13.02;;;12.10;;
19587;SDS011;9940;47.252;8.696;2023-02-10T11:15:57;19.42;;;18.23;;
19587;SDS011;9940;47.252;8.696;2023-02-10T11:18:24;20.48;;;18.98;;
19587;SDS011;9940;47.252;8.696;2023-02-10T11:20:58;22.23;;;20.67;;
19587;SDS011;9940;47.252;8.696;2023-02-10T11:23:25;18.52;;;17.27;;
19587;SDS011;9940;47.252;8.696;2023-02-10T11:26:02;26.13;;;24.63;;
19587;SDS011;9940;47.252;8.696;2023-02-10T11:28:30;25.58;;;24.15;;
19587;SDS011;9940;47.252;8.696;2023-02-10T11:30:59;53.63;;;50.83;;
19587;SDS011;9940;47.252;8.696;2023-02-10T11:33:31;40.10;;;37.75;;
19587;SDS011;9940;47.252;8.696;2023-02-10T11:36:05;42.53;;;40.22;;
19587;SDS011;9940;47.252;8.696;2023-02-10T11:38:32;48.95;;;46.40;;
19587;SDS011;9940;47.252;8.696;2023-02-10T11:41:05;38.55;;;36.38;;
19587;SDS011;9940;47.252;8.696;2023-02-10T11:43:45;46.50;;;44.10;;
19587;SDS011;9940;47.252;8.696;2023-02-10T11:46:28;45.00;;;42.47;;
19587;SDS011;9940;47.252;8.696;2023-02-10T11:51:20;21.02;;;19.63;;
19587;SDS011;9940;47.252;8.696;2023-02-10T11:53:46;21.73;;;20.33;;
19587;SDS011;9940;47.252;8.696;2023-02-10T11:56:15;15.48;;;14.27;;
19587;SDS011;9940;47.252;8.696;2023-02-10T11:58:46;18.92;;;17.73;;
19587;SDS011;9940;47.252;8.696;2023-02-10T12:06:41;10.90;;;10.10;;
19587;SDS011;9940;47.252;8.696;2023-02-10T12:16:55;6.65;;;5.78;;
19587;SDS011;9940;47.252;8.696;2023-02-10T12:24:28;5.68;;;5.05;;
19587;SDS011;9940;47.252;8.696;2023-02-10T12:27:09;6.85;;;4.43;;
19587;SDS011;9940;47.252;8.696;2023-02-10T12:32:29;7.18;;;4.72;;
19587;SDS011;9940;47.252;8.696;2023-02-10T12:46:17;7.32;;;6.00;;
19587;SDS011;9940;47.252;8.696;2023-02-10T12:57:43;7.35;;;5.70;;
19587;SDS011;9940;47.252;8.696;2023-02-10T13:00:19;7.35;;;5.40;;
19587;SDS011;9940;47.252;8.696;2023-02-10T13:02:50;10.73;;;6.18;;
19587;SDS011;9940;47.252;8.696;2023-02-10T13:08:29;11.13;;;6.72;;
19587;SDS011;9940;47.252;8.696;2023-02-10T13:11:13;7.70;;;4.57;;
19587;SDS011;9940;47.252;8.696;2023-02-10T13:13:45;8.88;;;5.43;;
19587;SDS011;9940;47.252;8.696;2023-02-10T13:16:14;9.35;;;5.63;;
19587;SDS011;9940;47.252;8.696;2023-02-10T13:23:49;7.97;;;5.00;;
19587;SDS011;9940;47.252;8.696;2023-02-10T13:26:31;8.07;;;5.60;;
19587;SDS011;9940;47.252;8.696;2023-02-10T13:36:27;9.32;;;5.68;;
19587;SDS011;9940;47.252;8.696;2023-02-10T13:39:03;6.07;;;5.05;;
19587;SDS011;9940;47.252;8.696;2023-02-10T13:41:32;8.77;;;5.25;;
19587;SDS011;9940;47.252;8.696;2023-02-10T13:44:15;7.93;;;4.80;;
19587;SDS011;9940;47.252;8.696;2023-02-10T13:46:42;8.52;;;4.95;;
19587;SDS011;9940;47.252;8.696;2023-02-10T13:49:11;8.65;;;4.88;;
19587;SDS011;9940;47.252;8.696;2023-02-10T13:51:44;10.38;;;4.80;;
19587;SDS011;9940;47.252;8.696;2023-02-10T13:54:24;8.52;;;5.07;;
19587;SDS011;9940;47.252;8.696;2023-02-10T13:56:54;8.43;;;4.68;;
19587;SDS011;9940;47.252;8.696;2023-02-10T14:01:47;8.27;;;4.95;;
19587;SDS011;9940;47.252;8.696;2023-02-10T14:06:44;9.07;;;5.57;;
19587;SDS011;9940;47.252;8.696;2023-02-10T14:11:59;11.05;;;5.20;;
19587;SDS011;9940;47.252;8.696;2023-02-10T14:16:52;8.00;;;5.15;;
19587;SDS011;9940;47.252;8.696;2023-02-10T14:21:56;8.43;;;4.82;;
19587;SDS011;9940;47.252;8.696;2023-02-10T14:24:44;8.90;;;5.30;;
19587;SDS011;9940;47.252;8.696;2023-02-10T14:27:11;8.68;;;5.00;;
19587;SDS011;9940;47.252;8.696;2023-02-10T14:29:39;9.90;;;5.18;;
19587;SDS011;9940;47.252;8.696;2023-02-10T14:32:11;9.45;;;5.05;;
19587;SDS011;9940;47.252;8.696;2023-02-10T14:34:39;8.40;;;5.22;;
19587;SDS011;9940;47.252;8.696;2023-02-10T14:37:15;10.52;;;4.88;;
19587;SDS011;9940;47.252;8.696;2023-02-10T14:39:49;12.05;;;5.78;;
19587;SDS011;9940;47.252;8.696;2023-02-10T14:42:15;9.93;;;5.28;;
19587;SDS011;9940;47.252;8.696;2023-02-10T14:44:45;10.38;;;5.50;;
19587;SDS011;9940;47.252;8.696;2023-02-10T14:47:30;11.00;;;5.70;;
19587;SDS011;9940;47.252;8.696;2023-02-10T14:49:59;11.23;;;5.85;;
19587;SDS011;9940;47.252;8.696;2023-02-10T14:52:46;9.68;;;5.25;;
19587;SDS011;9940;47.252;8.696;2023-02-10T15:00:29;13.40;;;6.40;;
19587;SDS011;9940;47.252;8.696;2023-02-10T15:02:56;13.15;;;5.93;;
19587;SDS011;9940;47.252;8.696;2023-02-10T15:05:24;13.13;;;6.28;;
19587;SDS011;9940;47.252;8.696;2023-02-10T15:07:54;16.05;;;6.75;;
19587;SDS011;9940;47.252;8.696;2023-02-10T15:10:32;10.48;;;6.18;;
19587;SDS011;9940;47.252;8.696;2023-02-10T15:12:59;14.02;;;6.18;;
19587;SDS011;9940;47.252;8.696;2023-02-10T15:17:58;11.23;;;5.43;;
19587;SDS011;9940;47.252;8.696;2023-02-10T15:20:30;11.73;;;5.97;;
19587;SDS011;9940;47.252;8.696;2023-02-10T15:30:41;14.98;;;6.20;;
19587;SDS011;9940;47.252;8.696;2023-02-10T15:33:14;12.98;;;6.80;;
19587;SDS011;9940;47.252;8.696;2023-02-10T15:35:50;14.48;;;6.78;;
19587;SDS011;9940;47.252;8.696;2023-02-10T15:38:16;14.57;;;7.13;;
19587;SDS011;9940;47.252;8.696;2023-02-10T15:40:50;16.23;;;7.28;;
19587;SDS011;9940;47.252;8.696;2023-02-10T15:48:18;12.90;;;5.70;;
19587;SDS011;9940;47.252;8.696;2023-02-10T15:50:44;11.23;;;5.53;;
19587;SDS011;9940;47.252;8.696;2023-02-10T15:53:11;10.43;;;5.35;;
19587;SDS011;9940;47.252;8.696;2023-02-10T15:55:40;13.43;;;5.53;;
19587;SDS011;9940;47.252;8.696;2023-02-10T15:58:08;11.07;;;5.78;;
19587;SDS011;9940;47.252;8.696;2023-02-10T16:00:35;13.05;;;5.40;;
19587;SDS011;9940;47.252;8.696;2023-02-10T16:03:02;11.40;;;5.60;;
19587;SDS011;9940;47.252;8.696;2023-02-10T16:05:28;9.98;;;5.63;;
19587;SDS011;9940;47.252;8.696;2023-02-10T16:08:00;10.50;;;5.45;;
19587;SDS011;9940;47.252;8.696;2023-02-10T16:10:31;10.55;;;5.22;;
19587;SDS011;9940;47.252;8.696;2023-02-10T16:12:57;9.35;;;5.80;;
19587;SDS011;9940;47.252;8.696;2023-02-10T16:15:23;11.80;;;5.43;;
19587;SDS011;9940;47.252;8.696;2023-02-10T16:17:53;15.40;;;5.90;;
19587;SDS011;9940;47.252;8.696;2023-02-10T16:20:23;12.40;;;5.78;;
19587;SDS011;9940;47.252;8.696;2023-02-10T16:22:50;12.60;;;5.90;;
19587;SDS011;9940;47.252;8.696;2023-02-10T16:25:17;12.00;;;6.20;;
19587;SDS011;9940;47.252;8.696;2023-02-10T16:27:44;15.32;;;6.30;;
19587;SDS011;9940;47.252;8.696;2023-02-10T16:30:16;12.98;;;6.38;;
19587;SDS011;9940;47.252;8.696;2023-02-10T16:32:45;13.65;;;6.85;;
19587;SDS011;9940;47.252;8.696;2023-02-10T16:35:12;13.05;;;6.20;;
19587;SDS011;9940;47.252;8.696;2023-02-10T16:37:38;13.18;;;6.00;;
19587;SDS011;9940;47.252;8.696;2023-02-10T16:40:05;14.98;;;7.38;;
19587;SDS011;9940;47.252;8.696;2023-02-10T16:42:31;13.65;;;6.72;;
19587;SDS011;9940;47.252;8.696;2023-02-10T16:44:58;13.32;;;6.85;;
19587;SDS011;9940;47.252;8.696;2023-02-10T16:47:26;11.48;;;6.22;;
19587;SDS011;9940;47.252;8.696;2023-02-10T16:49:55;15.82;;;6.78;;
19587;SDS011;9940;47.252;8.696;2023-02-10T16:52:21;16.35;;;7.07;;
19587;SDS011;9940;47.252;8.696;2023-02-10T16:54:50;11.65;;;6.07;;
19587;SDS011;9940;47.252;8.696;2023-02-10T16:57:17;42.53;;;17.85;;
19587;SDS011;9940;47.252;8.696;2023-02-10T16:59:45;28.05;;;13.52;;
19587;SDS011;9940;47.252;8.696;2023-02-10T17:02:13;17.50;;;7.78;;
19587;SDS011;9940;47.252;8.696;2023-02-10T17:04:42;13.50;;;6.43;;
19587;SDS011;9940;47.252;8.696;2023-02-10T17:07:08;14.90;;;5.55;;
19587;SDS011;9940;47.252;8.696;2023-02-10T17:09:36;20.90;;;7.53;;
19587;SDS011;9940;47.252;8.696;2023-02-10T17:12:02;18.48;;;7.38;;
19587;SDS011;9940;47.252;8.696;2023-02-10T17:14:28;19.67;;;7.60;;
19587;SDS011;9940;47.252;8.696;2023-02-10T17:16:57;15.68;;;7.07;;
19587;SDS011;9940;47.252;8.696;2023-02-10T17:19:28;13.70;;;6.80;;
19587;SDS011;9940;47.252;8.696;2023-02-10T17:21:56;14.80;;;6.63;;
19587;SDS011;9940;47.252;8.696;2023-02-10T17:24:29;14.07;;;6.35;;
19587;SDS011;9940;47.252;8.696;2023-02-10T17:26:55;14.48;;;6.72;;
19587;SDS011;9940;47.252;8.696;2023-02-10T17:29:24;15.50;;;6.85;;
19587;SDS011;9940;47.252;8.696;2023-02-10T17:31:50;15.93;;;7.28;;
19587;SDS011;9940;47.252;8.696;2023-02-10T17:34:16;19.33;;;7.68;;
19587;SDS011;9940;47.252;8.696;2023-02-10T17:36:44;17.45;;;6.88;;
19587;SDS011;9940;47.252;8.696;2023-02-10T17:39:15;25.48;;;8.32;;
19587;SDS011;9940;47.252;8.696;2023-02-10T17:42:03;14.90;;;7.05;;
19587;SDS011;9940;47.252;8.696;2023-02-10T17:44:29;18.45;;;6.95;;